Sault Sainte Marie, MI

2:14 PM EDT on August 21, 2014 (GMT -0400)
Drummond Island | Change Station
CLOSE
Current Station
Airport
Location: Drummond Island,
Elevation: 669 ft
Nearby Weather Stations

Elev 669 ft 46.01 °N, 83.74 °W | Updated 20 minutes ago

Overcast
Overcast
69 °F
Feels Like 69 °F
N
0
Wind Variable Wind from North

Today
High -- | Low -- °F
--% Chance of Precip.
Yesterday
High -- | Low -- °F
Precip. -- in
6:43 AM 8:36 PM
Waning Crescent, 13% visible
Pressure 29.98 in
Visibility 10.0 miles
Clouds Overcast 1900 ft
Dew Point 65 °F
Humidity 85%
Rainfall 0.00 in
Snow Depth Not available.
UV 3 out of 12
Pollen 8.80 out of 12
Ozone Good
PM2.5 Good
Flu Activity Not available.
METAR KDRM 211754Z AUTO 00000KT 10SM OVC019 21/18 A2998 RMK AO2 T02080182

More Conditions Fewer Conditions

Pressure 29.98 in
Visibility 10.0 miles
Clouds Overcast 1900 ft
Dew Point 65 °F
Humidity 85%
Rainfall 0.00 in
Snow Depth Not available.
UV 3 out of 12
Pollen 8.80 out of 12
Ozone Good
PM2.5 Good
Flu Activity Not available.
METAR KDRM 211754Z AUTO 00000KT 10SM OVC019 21/18 A2998 RMK AO2 T02080182

More Conditions Fewer Conditions

Nowcast | as of 2:00 PM EDT on August 21, 2014

At 3 PM...mostly cloudy. Temperature 71. Light winds. At 5 PM...partly cloudy. Temperature 72. Light winds. At 7 PM...partly cloudy. Temperature 70. Southwest winds 5 mph. At 9 PM...partly cloudy. Temperature 66. South winds 5 mph.

×

10-Day Weather Forecast

Almanac

Astronomy

Aug. 21, 2014 Rise Set
Actual Time 6:43 AM EDT 8:36 PM EDT
Civil Twilight 6:11 AM EDT 9:08 PM EDT
Nautical Twilight 5:31 AM EDT 9:48 PM EDT
Astronomical Twilight 4:47 AM EDT 10:31 PM EDT
Moon 3:07 AM EDT 6:09 PM EDT
Length of Visible Light 14h 57m
Length of Day
13h 53m
Tomorrow will be 3m 4s shorter.
Waning Crescent, 13% of the Moon is Illuminated
Today
Waning Crescent
Aug 25
New
Sep 2
First Quarter
Sep 8
Full
Sep 15
Last Quarter

Today's Extremes

State Highs State Lows

Community

WunderPhotos

Upload Photos

1,745,992 photos uploaded!

WunderBlogs® & News

Nearby

Air Quality

  Air Quality AQ Index Pollutant
Yesterday Good
PM2.5
Yesterday Good
OZONE
Current Good
PM2.5
Current Good
OZONE
Thursday Good
OZONE
Thursday Good
PM2.5
Friday Good
OZONE
Friday Good
PM2.5
Saturday Good
OZONE
Saturday Good
PM2.5
Sunday Good
OZONE
Sunday Good
PM2.5

Snow Depth

Station Depth Elevation
No new snow has been reported.

Earthquake Activity

City Distance Mag. Time & Date
No recent earthquake activity has been reported nearby.
Minimum magnitude displayed is 2.5.

Coastal Water Temperatures

Place Temperature
Rock Cut, MI 61.0 °F
S W Pier, MI 60.1 °F
West Neebish, MI 59.0 °F

Nearby Weather Stations